Time;durP1;ratioP1;P1;durP2;ratioP2;P2;SDS_P1;SDS_P2;PMS_P1;PMS_P2;Temp;Humidity;BMP_temperature;BMP_pressure;BME280_temperature;BME280_humidity;BME280_pressure;Samples;Min_cycle;Max_cycle;Signal;HPM_P1;HPM_P2
2023/05/23 00:01:48;;;;;;;7.70;2.10;;;;;;;11.67;100.00;102118.09;4991302;28;20061;-66
2023/05/23 00:04:17;;;;;;;7.20;1.90;;;;;;;11.57;100.00;102110.44;4990731;28;20389;-66
2023/05/23 00:06:45;;;;;;;5.60;1.70;;;;;;;11.61;100.00;102095.50;4989427;28;20056;-66
2023/05/23 00:09:13;;;;;;;9.57;2.13;;;;;;;11.65;100.00;102112.91;4970212;28;20051;-66
2023/05/23 00:11:43;;;;;;;9.60;2.45;;;;;;;11.50;100.00;102103.56;4990662;28;20076;-66
2023/05/23 00:14:13;;;;;;;10.10;2.55;;;;;;;11.53;100.00;102107.91;4991514;28;20384;-67
2023/05/23 00:16:44;;;;;;;9.30;2.53;;;;;;;11.56;100.00;102103.47;4997067;28;20066;-66
2023/05/23 00:19:13;;;;;;;11.68;2.60;;;;;;;11.55;100.00;102087.75;4999277;28;20065;-66
2023/05/23 00:21:47;;;;;;;9.95;2.45;;;;;;;11.54;100.00;102083.41;4990386;28;20074;-66
2023/05/23 00:24:17;;;;;;;11.10;2.47;;;;;;;11.55;100.00;102085.13;4989424;28;20146;-66
2023/05/23 00:26:45;;;;;;;8.27;2.35;;;;;;;11.54;100.00;102086.03;4990979;28;20100;-66
2023/05/23 00:29:15;;;;;;;7.70;2.08;;;;;;;11.52;100.00;102088.66;4991598;28;20527;-66
2023/05/23 00:31:45;;;;;;;7.15;2.30;;;;;;;11.48;100.00;102094.03;4986588;28;20051;-66
2023/05/23 00:34:14;;;;;;;9.00;1.70;;;;;;;11.44;100.00;102093.22;4971077;28;20091;-66
2023/05/23 00:36:43;;;;;;;9.05;1.77;;;;;;;11.38;100.00;102065.38;4990959;28;20089;-66
2023/05/23 00:39:17;;;;;;;11.18;2.47;;;;;;;11.52;100.00;102090.44;4991513;28;20056;-66
2023/05/23 00:41:49;;;;;;;6.35;1.88;;;;;;;11.42;100.00;102081.03;4990831;28;20043;-66
2023/05/23 00:44:19;;;;;;;8.13;2.10;;;;;;;11.29;100.00;102064.66;4989856;28;20050;-66
2023/05/23 00:46:51;;;;;;;12.00;2.30;;;;;;;11.31;100.00;102070.75;4990703;28;20062;-66
2023/05/23 00:49:19;;;;;;;8.75;2.75;;;;;;;11.30;100.00;102077.75;4990899;28;20058;-66
2023/05/23 00:51:48;;;;;;;10.98;2.40;;;;;;;11.34;100.00;102086.41;4991011;28;20050;-66
2023/05/23 00:54:19;;;;;;;8.68;1.95;;;;;;;11.36;100.00;102071.53;4989925;28;20061;-66
2023/05/23 00:56:47;;;;;;;7.43;1.95;;;;;;;11.35;100.00;102077.66;4991186;28;20399;-67
2023/05/23 00:59:15;;;;;;;7.57;2.30;;;;;;;11.42;100.00;102087.16;4990672;28;20470;-66
2023/05/23 01:01:45;;;;;;;7.55;2.22;;;;;;;11.53;100.00;102076.44;4990561;28;20054;-66
2023/05/23 01:04:15;;;;;;;6.75;1.88;;;;;;;11.57;100.00;102076.31;4990002;28;20046;-67
2023/05/23 01:06:45;;;;;;;13.40;3.05;;;;;;;11.18;100.00;102060.47;4990748;28;20169;-66
2023/05/23 01:09:15;;;;;;;14.40;3.30;;;;;;;11.32;100.00;102075.97;4982291;28;20050;-66
2023/05/23 01:12:10;;;;;;;11.90;2.58;;;;;;;11.36;100.00;102071.53;4990462;28;20053;-66
2023/05/23 01:14:41;;;;;;;10.00;2.05;;;;;;;11.33;100.00;102045.34;4990702;28;20480;-66
2023/05/23 01:17:16;;;;;;;11.45;2.90;;;;;;;11.44;100.00;102073.97;4998749;28;20401;-67
2023/05/23 01:20:11;;;;;;;14.05;3.47;;;;;;;11.46;100.00;102075.69;4989330;28;20137;-66
2023/05/23 01:22:59;;;;;;;11.93;2.97;;;;;;;11.52;100.00;102087.81;4984711;28;20050;-66
2023/05/23 01:25:35;;;;;;;11.27;2.17;;;;;;;11.43;100.00;102085.38;4982759;28;20478;-66
2023/05/23 01:28:07;;;;;;;11.05;2.80;;;;;;;11.48;100.00;102087.00;4990698;28;20480;-66
2023/05/23 01:30:39;;;;;;;13.48;2.92;;;;;;;11.56;100.00;102081.59;4986157;28;20535;-67
2023/05/23 01:33:08;;;;;;;9.45;2.10;;;;;;;11.57;100.00;102081.56;4990513;28;20549;-66
2023/05/23 01:35:36;;;;;;;17.42;4.03;;;;;;;11.52;100.00;102075.56;4983165;28;20051;-67
2023/05/23 01:38:03;;;;;;;9.73;2.53;;;;;;;11.46;100.00;102059.97;4990301;28;20054;-66
2023/05/23 01:40:29;;;;;;;13.98;2.90;;;;;;;11.66;100.00;102082.28;4989663;28;20053;-66
2023/05/23 01:42:57;;;;;;;13.73;2.95;;;;;;;11.38;100.00;102062.75;4990707;28;20054;-66
2023/05/23 01:45:26;;;;;;;12.13;2.22;;;;;;;11.49;100.00;102083.50;4989088;28;20050;-66
2023/05/23 01:47:55;;;;;;;8.75;2.47;;;;;;;11.42;100.00;102078.41;4990659;28;20539;-67
2023/05/23 01:50:23;;;;;;;11.02;2.50;;;;;;;11.44;100.00;102084.47;4990096;28;20058;-66
2023/05/23 01:52:51;;;;;;;14.48;3.00;;;;;;;11.41;100.00;102074.91;4990441;28;20052;-66
2023/05/23 01:55:21;;;;;;;13.38;2.80;;;;;;;11.38;100.00;102065.38;4989317;28;20081;-66
2023/05/23 01:57:54;;;;;;;9.45;1.85;;;;;;;11.55;100.00;102077.28;4993573;28;20054;-67
2023/05/23 02:00:21;;;;;;;17.73;2.90;;;;;;;11.53;100.00;102066.81;4980213;28;20051;-67
2023/05/23 02:02:48;;;;;;;8.73;2.17;;;;;;;11.42;100.00;102062.66;4994367;28;20044;-67
2023/05/23 02:05:14;;;;;;;8.20;2.80;;;;;;;11.34;100.00;102068.91;4993546;28;20622;-66
2023/05/23 02:07:41;;;;;;;7.95;2.50;;;;;;;11.14;100.00;102053.59;4993604;28;20149;-66
2023/05/23 02:10:08;;;;;;;7.55;2.00;;;;;;;11.31;100.00;102073.38;4993057;28;20064;-66
2023/05/23 02:12:35;;;;;;;13.30;2.65;;;;;;;11.17;100.00;102081.47;4993203;28;20039;-65
2023/05/23 02:15:02;;;;;;;13.90;2.55;;;;;;;11.07;100.00;102083.44;4991050;28;20050;-66
2023/05/23 02:17:29;;;;;;;10.27;2.53;;;;;;;10.88;100.00;102077.63;4992922;28;20046;-65
2023/05/23 02:19:56;;;;;;;13.95;2.30;;;;;;;10.99;100.00;102066.97;4992963;28;20089;-66
2023/05/23 02:22:24;;;;;;;7.53;2.00;;;;;;;11.03;100.00;102068.66;4993273;28;20065;-65
2023/05/23 02:24:51;;;;;;;9.82;2.15;;;;;;;11.02;100.00;102078.25;4996857;28;20049;-66
2023/05/23 02:27:18;;;;;;;10.57;2.35;;;;;;;10.72;100.00;102076.19;4996384;28;20046;-65
2023/05/23 02:29:45;;;;;;;10.35;2.65;;;;;;;10.57;100.00;102074.66;4992681;28;20046;-65
2023/05/23 02:32:12;;;;;;;10.55;2.85;;;;;;;10.59;100.00;102083.38;4992859;28;20053;-65
2023/05/23 02:34:39;;;;;;;7.88;2.10;;;;;;;10.64;100.00;102081.53;4991452;28;20089;-66
2023/05/23 02:37:06;;;;;;;6.93;2.30;;;;;;;10.60;100.00;102037.94;4992846;28;20065;-65
2023/05/23 02:39:36;;;;;;;9.45;2.40;;;;;;;10.75;100.00;102044.69;4993380;28;20140;-65
2023/05/23 02:42:03;;;;;;;7.00;2.20;;;;;;;10.85;100.00;102058.47;4993344;28;20057;-67
2023/05/23 02:44:30;;;;;;;10.30;3.90;;;;;;;10.74;100.00;102048.19;4992534;28;20073;-66
2023/05/23 02:46:57;;;;;;;10.88;2.67;;;;;;;10.61;100.00;102047.56;4993366;28;20060;-65
2023/05/23 02:49:24;;;;;;;8.80;1.92;;;;;;;10.42;100.00;102050.44;4993704;28;20054;-65
2023/05/23 02:51:51;;;;;;;18.83;3.17;;;;;;;10.17;100.00;102036.00;4992634;28;20109;-65
2023/05/23 02:54:18;;;;;;;7.65;2.00;;;;;;;10.07;100.00;102054.47;4992348;28;20133;-65
2023/05/23 02:56:45;;;;;;;9.10;2.50;;;;;;;10.08;100.00;102058.78;4993097;28;20351;-66
2023/05/23 02:59:12;;;;;;;7.80;1.88;;;;;;;10.14;100.00;102047.34;4975512;28;20046;-65
2023/05/23 03:01:39;;;;;;;10.50;2.47;;;;;;;10.21;100.00;102040.28;4992852;28;20357;-65
2023/05/23 03:04:06;;;;;;;8.73;2.05;;;;;;;10.11;100.00;102041.31;4991812;28;20105;-67
2023/05/23 03:06:35;;;;;;;9.82;2.40;;;;;;;9.96;100.00;102035.41;4992113;28;20050;-66
2023/05/23 03:09:02;;;;;;;9.82;2.30;;;;;;;9.57;100.00;102036.81;4991691;28;20061;-66
2023/05/23 03:11:29;;;;;;;13.07;2.97;;;;;;;9.23;100.00;102000.63;4991572;28;20054;-66
2023/05/23 03:13:56;;;;;;;14.38;2.95;;;;;;;9.37;100.00;102053.63;4992735;28;20046;-66
2023/05/23 03:16:23;;;;;;;12.15;2.70;;;;;;;9.37;100.00;102048.38;4992172;28;20052;-66
2023/05/23 03:18:50;;;;;;;14.45;2.95;;;;;;;9.39;100.00;102054.47;4991631;28;20047;-65
2023/05/23 03:21:16;;;;;;;10.50;2.60;;;;;;;9.46;100.00;102061.34;4992021;28;20144;-65
2023/05/23 03:23:43;;;;;;;7.82;2.20;;;;;;;9.55;100.00;102060.38;4994657;28;20053;-65
2023/05/23 03:26:10;;;;;;;10.93;3.17;;;;;;;9.47;100.00;102060.47;4991652;28;20527;-66
2023/05/23 03:28:37;;;;;;;7.93;2.38;;;;;;;9.34;100.00;102058.88;4991615;28;20057;-66
2023/05/23 03:31:04;;;;;;;10.95;2.08;;;;;;;9.36;100.00;102062.31;4992330;28;20516;-66
2023/05/23 03:33:30;;;;;;;9.07;2.35;;;;;;;9.47;100.00;102067.44;4992209;28;20108;-66
2023/05/23 03:35:57;;;;;;;8.38;2.35;;;;;;;9.46;100.00;102055.25;4991481;28;20046;-66
2023/05/23 03:38:25;;;;;;;11.02;2.40;;;;;;;9.60;100.00;102040.25;4992295;28;20050;-65
2023/05/23 03:40:51;;;;;;;10.55;2.10;;;;;;;9.45;100.00;102025.63;4992187;28;20141;-66
2023/05/23 03:43:18;;;;;;;11.55;2.33;;;;;;;9.70;100.00;102056.69;4992229;28;20062;-65
2023/05/23 03:45:45;;;;;;;11.98;3.63;;;;;;;9.40;100.00;102045.75;4990764;28;20050;-66
2023/05/23 03:48:11;;;;;;;8.85;2.28;;;;;;;9.39;100.00;102061.44;4992067;28;20103;-65
2023/05/23 03:50:38;;;;;;;10.02;2.20;;;;;;;9.42;100.00;102054.44;4991401;28;20558;-66
2023/05/23 03:53:06;;;;;;;7.50;2.03;;;;;;;9.45;100.00;102048.28;4992122;28;20401;-66
2023/05/23 03:55:33;;;;;;;10.38;3.13;;;;;;;9.30;100.00;102011.00;4991450;28;20145;-66
2023/05/23 03:57:59;;;;;;;7.95;1.83;;;;;;;9.46;100.00;102029.13;4991266;28;20058;-66
2023/05/23 04:00:26;;;;;;;6.93;2.03;;;;;;;9.54;100.00;102037.72;4989272;28;20057;-66
2023/05/23 04:02:53;;;;;;;10.65;2.42;;;;;;;9.43;100.00;102045.69;4990688;28;20042;-65
2023/05/23 04:05:20;;;;;;;8.00;2.10;;;;;;;9.42;100.00;102048.31;4989893;28;20404;-67
2023/05/23 04:07:47;;;;;;;9.23;2.25;;;;;;;9.33;100.00;102025.78;4991095;28;20046;-66
2023/05/23 04:10:15;;;;;;;9.38;2.33;;;;;;;9.61;100.00;102049.81;4991219;28;20086;-66
2023/05/23 04:12:42;;;;;;;7.03;2.35;;;;;;;9.69;100.00;102037.53;4970504;28;20501;-67
2023/05/23 04:15:10;;;;;;;8.00;2.25;;;;;;;9.65;100.00;102024.50;4986205;28;20116;-66
2023/05/23 04:17:37;;;;;;;8.93;2.00;;;;;;;9.48;100.00;102035.19;4991394;28;20054;-66
2023/05/23 04:20:08;;;;;;;7.50;2.00;;;;;;;9.52;100.00;102031.63;4989767;28;20535;-66
2023/05/23 04:22:35;;;;;;;8.32;2.10;;;;;;;9.44;100.00;102015.19;4991682;28;20069;-66
2023/05/23 04:25:02;;;;;;;9.15;2.60;;;;;;;9.40;100.00;102001.31;4992792;28;20050;-66
2023/05/23 04:27:29;;;;;;;9.73;2.55;;;;;;;9.96;100.00;102038.03;4977545;28;20963;-66
2023/05/23 04:29:57;;;;;;;8.15;2.25;;;;;;;10.44;100.00;102038.19;4989773;28;20065;-66
2023/05/23 04:32:24;;;;;;;6.55;1.88;;;;;;;10.68;100.00;102037.81;4990441;28;20054;-66
2023/05/23 04:34:51;;;;;;;11.20;2.45;;;;;;;10.80;100.00;102032.34;4988116;28;20054;-66
2023/05/23 04:37:24;;;;;;;12.55;2.50;;;;;;;11.08;100.00;102031.84;4991383;28;20077;-67
2023/05/23 04:39:51;;;;;;;;;;;;;;;11.24;100.00;102032.44;4991812;28;20076;-66
2023/05/23 04:42:23;;;;;;;9.70;2.58;;;;;;;11.66;100.00;102028.06;4990851;28;19926;-66
2023/05/23 04:44:51;;;;;;;10.02;2.28;;;;;;;11.47;100.00;102024.09;4990234;28;20253;-66
2023/05/23 04:47:18;;;;;;;9.00;2.70;;;;;;;11.28;100.00;102031.47;4991092;28;20133;-66
2023/05/23 04:49:45;;;;;;;11.38;2.70;;;;;;;10.60;100.00;102030.09;4990487;28;20081;-66
2023/05/23 04:52:12;;;;;;;13.18;2.70;;;;;;;10.38;100.00;102034.84;4990663;28;20054;-66
2023/05/23 04:54:43;;;;;;;13.07;2.92;;;;;;;10.23;100.00;102026.31;4989569;28;20050;-66
2023/05/23 04:57:11;;;;;;;12.82;2.95;;;;;;;10.66;100.00;102036.97;4991087;28;20500;-66
2023/05/23 04:59:38;;;;;;;8.02;2.33;;;;;;;10.53;100.00;102026.72;4991097;28;20050;-66
2023/05/23 05:02:05;;;;;;;11.52;2.45;;;;;;;10.45;100.00;102013.75;4990869;28;20042;-66
2023/05/23 05:04:32;;;;;;;11.85;2.58;;;;;;;10.57;100.00;102030.13;4989152;28;20456;-66
2023/05/23 05:06:59;;;;;;;9.38;2.45;;;;;;;10.45;100.00;102032.09;4984536;28;20061;-66
2023/05/23 05:09:26;;;;;;;10.68;3.05;;;;;;;10.31;100.00;102031.44;4990233;28;20050;-66
2023/05/23 05:11:52;;;;;;;8.90;2.90;;;;;;;10.10;100.00;102036.97;4989829;28;20085;-66
2023/05/23 05:14:19;;;;;;;11.23;2.50;;;;;;;10.18;100.00;102038.59;4989311;28;20062;-66
2023/05/23 05:16:47;;;;;;;11.45;2.78;;;;;;;10.12;100.00;102043.91;4990450;28;20061;-66
2023/05/23 05:19:14;;;;;;;15.10;2.95;;;;;;;9.96;100.00;102011.88;4989934;28;20056;-66
2023/05/23 05:21:41;;;;;;;11.15;2.58;;;;;;;10.33;100.00;102034.03;4978080;28;20110;-66
2023/05/23 05:24:11;;;;;;;10.15;2.88;;;;;;;10.44;100.00;102022.47;4989830;28;20061;-66
2023/05/23 05:26:38;;;;;;;8.80;2.38;;;;;;;10.53;100.00;102021.47;4987290;28;20133;-66
2023/05/23 05:29:05;;;;;;;9.75;2.50;;;;;;;10.38;100.00;102012.13;4974818;28;20133;-66
2023/05/23 05:31:31;;;;;;;11.18;2.75;;;;;;;10.40;100.00;102018.19;4974903;28;20050;-67
2023/05/23 05:33:58;;;;;;;13.05;2.85;;;;;;;10.54;100.00;102019.75;4995308;28;20089;-66
2023/05/23 05:36:25;;;;;;;10.15;2.47;;;;;;;10.62;100.00;102017.84;4987469;28;20105;-66
2023/05/23 05:38:52;;;;;;;10.30;2.25;;;;;;;10.92;100.00;102012.94;4996892;28;20050;-66
2023/05/23 05:41:19;;;;;;;8.60;2.33;;;;;;;10.90;100.00;102014.72;4994315;28;20057;-65
2023/05/23 05:43:45;;;;;;;8.32;2.72;;;;;;;10.99;100.00;102010.16;4983608;28;20054;-65
2023/05/23 05:46:12;;;;;;;7.93;2.03;;;;;;;10.98;100.00;102005.84;4994140;28;20054;-66
2023/05/23 05:48:39;;;;;;;6.82;2.10;;;;;;;11.09;100.00;102010.00;4994533;28;20530;-66
2023/05/23 05:51:06;;;;;;;10.45;2.58;;;;;;;10.90;100.00;102005.09;4991306;28;20097;-65
2023/05/23 05:53:33;;;;;;;8.85;2.20;;;;;;;11.75;100.00;102019.13;4994295;28;20129;-65
2023/05/23 05:56:00;;;;;;;12.95;3.72;;;;;;;12.47;100.00;102013.97;4989841;28;20059;-65
2023/05/23 05:58:26;;;;;;;12.38;3.92;;;;;;;12.97;100.00;102019.66;4991498;28;20089;-66
2023/05/23 06:00:54;;;;;;;11.15;2.78;;;;;;;13.34;100.00;102017.81;4979006;28;20051;-66
2023/05/23 06:03:20;;;;;;;10.63;3.22;;;;;;;13.85;100.00;102012.75;4985478;28;20125;-66
2023/05/23 06:05:47;;;;;;;11.07;2.67;;;;;;;14.10;100.00;102024.31;4992921;28;20416;-67
2023/05/23 06:08:14;;;;;;;8.77;2.40;;;;;;;14.45;100.00;102015.25;4990229;28;20494;-67
2023/05/23 06:10:41;;;;;;;10.32;2.35;;;;;;;15.06;100.00;102017.56;4994664;28;20054;-66
2023/05/23 06:13:08;;;;;;;10.45;1.98;;;;;;;15.67;100.00;102019.69;4995128;28;20105;-66
2023/05/23 06:15:35;;;;;;;9.65;2.47;;;;;;;16.20;100.00;102026.47;4994477;28;20404;-66
2023/05/23 06:18:02;;;;;;;11.48;2.58;;;;;;;15.93;100.00;102023.97;4994971;28;20062;-67
2023/05/23 06:20:29;;;;;;;10.07;2.70;;;;;;;15.47;100.00;102028.34;4994468;28;20050;-67
2023/05/23 06:22:55;;;;;;;13.93;2.80;;;;;;;15.29;100.00;102023.78;4995674;28;20050;-67
2023/05/23 06:25:22;;;;;;;10.02;2.58;;;;;;;15.01;100.00;102022.13;4993651;28;20407;-67
2023/05/23 06:27:49;;;;;;;13.18;2.47;;;;;;;15.17;100.00;102003.97;4994665;28;20072;-67
2023/05/23 06:30:16;;;;;;;11.38;3.20;;;;;;;15.15;100.00;102024.28;5004999;28;20054;-67
2023/05/23 06:32:42;;;;;;;9.23;2.90;;;;;;;15.36;100.00;102018.22;4976538;28;20487;-67
2023/05/23 06:35:09;;;;;;;10.73;2.75;;;;;;;15.05;100.00;102015.84;4992952;28;20058;-67
2023/05/23 06:37:36;;;;;;;13.00;2.78;;;;;;;15.54;100.00;102023.72;4993605;28;20042;-67
2023/05/23 06:40:04;;;;;;;9.70;2.63;;;;;;;15.74;100.00;102020.31;4993513;28;20046;-67
2023/05/23 06:42:31;;;;;;;12.70;2.70;;;;;;;16.19;100.00;102021.22;4992597;28;20504;-67
2023/05/23 06:44:57;;;;;;;13.18;2.72;;;;;;;16.18;100.00;102019.50;4989398;28;20242;-67
2023/05/23 06:47:24;;;;;;;10.40;2.97;;;;;;;16.30;100.00;102019.00;4991885;28;20050;-67
2023/05/23 06:49:51;;;;;;;8.43;2.17;;;;;;;17.01;100.00;102010.72;4992146;28;20477;-67
2023/05/23 06:52:18;;;;;;;9.63;2.65;;;;;;;16.89;100.00;102007.69;4992191;28;20161;-67
2023/05/23 06:54:45;;;;;;;12.15;2.92;;;;;;;17.29;100.00;102005.03;4992513;28;20478;-67
2023/05/23 06:57:11;;;;;;;9.15;2.33;;;;;;;17.44;100.00;101999.06;4993413;28;20476;-67
2023/05/23 06:59:38;;;;;;;9.73;2.90;;;;;;;17.08;100.00;102006.88;4992609;28;20046;-67
2023/05/23 07:02:05;;;;;;;10.65;3.10;;;;;;;16.48;100.00;102005.03;4993258;28;20050;-67
2023/05/23 07:04:32;;;;;;;11.88;2.65;;;;;;;17.23;100.00;102006.19;4990714;28;20148;-67
2023/05/23 07:06:59;;;;;;;13.20;2.85;;;;;;;18.26;100.00;102010.22;4993421;28;20054;-67
2023/05/23 07:09:25;;;;;;;11.52;2.45;;;;;;;18.43;100.00;102012.84;4991662;28;20042;-67
2023/05/23 07:11:52;;;;;;;14.18;2.67;;;;;;;18.72;100.00;102019.34;4992920;28;20562;-67
2023/05/23 07:14:19;;;;;;;10.45;2.67;;;;;;;17.72;100.00;101999.53;4991760;28;20491;-66
2023/05/23 07:16:46;;;;;;;8.73;2.42;;;;;;;18.33;100.00;102022.22;4993148;28;20496;-67
2023/05/23 07:19:13;;;;;;;11.38;2.80;;;;;;;18.11;98.90;102011.81;4992412;28;20124;-67
2023/05/23 07:21:40;;;;;;;11.02;2.22;;;;;;;17.23;99.15;102021.22;4992557;28;20058;-66
2023/05/23 07:24:06;;;;;;;9.10;2.55;;;;;;;17.10;100.00;102020.88;4992417;28;20133;-66
2023/05/23 07:26:33;;;;;;;11.15;2.40;;;;;;;16.98;99.41;102022.31;4993794;28;20086;-66
2023/05/23 07:29:00;;;;;;;9.00;1.80;;;;;;;18.11;98.57;102023.25;4991610;28;20137;-68
2023/05/23 07:31:27;;;;;;;9.15;2.13;;;;;;;18.70;100.00;102020.38;4991239;28;20050;-67
2023/05/23 07:33:54;;;;;;;15.20;2.92;;;;;;;18.30;84.24;102031.19;4992187;28;20046;-67
2023/05/23 07:36:22;;;;;;;10.73;2.35;;;;;;;18.26;93.23;102020.81;4991190;28;20400;-67
2023/05/23 07:38:49;;;;;;;8.82;2.05;;;;;;;18.66;81.03;102002.88;4992640;28;20476;-67
2023/05/23 07:41:16;;;;;;;9.30;2.28;;;;;;;18.50;80.73;102022.25;4991957;28;20050;-67
2023/05/23 07:43:42;;;;;;;11.60;2.90;;;;;;;18.89;92.84;102007.91;4992164;28;20046;-67
2023/05/23 07:46:09;;;;;;;10.68;2.15;;;;;;;19.39;88.37;102007.88;4991310;28;20496;-68
2023/05/23 07:48:36;;;;;;;10.57;2.45;;;;;;;19.34;83.74;101981.59;4992718;28;20054;-68
2023/05/23 07:51:03;;;;;;;11.07;2.25;;;;;;;19.53;84.94;102002.72;4992232;28;20061;-67
2023/05/23 07:53:30;;;;;;;10.10;2.22;;;;;;;19.39;66.71;101999.94;4992331;28;20046;-67
2023/05/23 07:55:57;;;;;;;8.15;1.83;;;;;;;19.03;70.39;101988.56;4991108;28;20042;-67
2023/05/23 07:58:23;;;;;;;9.82;1.95;;;;;;;19.13;71.05;101995.09;4992488;28;20058;-66
2023/05/23 08:00:50;;;;;;;11.85;2.53;;;;;;;19.94;69.63;101988.03;4991865;28;20054;-67
2023/05/23 08:03:18;;;;;;;9.23;2.10;;;;;;;20.35;67.52;101987.44;4991802;28;20604;-68
2023/05/23 08:05:46;;;;;;;7.93;2.30;;;;;;;20.73;65.95;101998.47;4991048;28;20085;-68
2023/05/23 08:08:13;;;;;;;9.82;2.20;;;;;;;20.55;64.17;101995.09;4991157;28;20058;-67
2023/05/23 08:10:41;;;;;;;13.90;2.90;;;;;;;19.68;62.53;102009.81;4991596;28;20081;-67
2023/05/23 08:13:09;;;;;;;12.45;2.42;;;;;;;19.29;70.33;102012.84;4974741;28;20501;-66
2023/05/23 08:15:36;;;;;;;9.68;2.17;;;;;;;19.66;68.73;101990.44;4984125;28;20535;-68
2023/05/23 08:18:03;;;;;;;9.15;2.10;;;;;;;19.87;70.44;101995.53;4990885;28;20522;-67
2023/05/23 08:20:30;;;;;;;8.73;2.42;;;;;;;19.66;68.74;101986.94;4990821;28;20050;-67
2023/05/23 08:22:59;;;;;;;7.25;1.92;;;;;;;20.26;67.17;101988.84;4990509;28;20058;-67
2023/05/23 08:25:29;;;;;;;7.68;1.88;;;;;;;19.89;67.98;101996.28;4989500;28;20146;-67
2023/05/23 08:27:57;;;;;;;13.82;3.50;;;;;;;19.78;68.55;101988.06;4990587;28;20092;-67
2023/05/23 08:30:25;;;;;;;13.27;2.85;;;;;;;18.82;71.94;101971.13;4990764;28;20058;-67
2023/05/23 08:32:54;;;;;;;16.88;2.97;;;;;;;19.01;70.80;101973.66;4990266;28;20063;-67
2023/05/23 08:35:22;;;;;;;12.98;3.00;;;;;;;20.44;70.73;101963.81;4991303;28;20082;-67
2023/05/23 08:37:49;;;;;;;8.48;2.15;;;;;;;20.17;67.04;101974.28;4991018;28;20077;-67
2023/05/23 08:40:21;;;;;;;7.65;2.42;;;;;;;19.31;73.29;101974.66;4991026;28;20054;-67
2023/05/23 08:42:49;;;;;;;10.25;2.60;;;;;;;20.07;69.05;101965.13;4977901;28;20318;-68
2023/05/23 08:45:17;;;;;;;9.02;2.45;;;;;;;20.16;68.30;101964.59;4989952;28;20077;-67
2023/05/23 08:47:48;;;;;;;9.25;2.60;;;;;;;20.41;69.42;101965.78;4990668;28;20053;-67
2023/05/23 08:50:17;;;;;;;7.57;2.17;;;;;;;20.03;68.86;101945.00;4969045;28;20137;-66
2023/05/23 08:52:56;;;;;;;12.15;2.80;;;;;;;19.67;66.46;101949.66;4989512;28;20054;-67
2023/05/23 08:55:28;;;;;;;8.35;2.00;;;;;;;20.19;69.80;101931.66;4990225;28;20133;-67
2023/05/23 08:57:59;;;;;;;9.43;2.08;;;;;;;20.74;63.09;101946.97;4991082;28;20046;-68
2023/05/23 09:00:26;;;;;;;11.15;2.75;;;;;;;20.06;65.19;101944.78;4976910;28;20050;-67
2023/05/23 09:02:53;;;;;;;12.05;2.60;;;;;;;19.54;67.88;101943.31;4990235;28;20046;-67
2023/05/23 09:05:21;;;;;;;10.35;2.58;;;;;;;20.57;67.35;101945.28;4988683;28;20062;-66
2023/05/23 09:07:49;;;;;;;10.30;2.35;;;;;;;20.48;67.35;101929.91;4990431;28;20051;-66
2023/05/23 09:10:21;;;;;;;7.85;2.00;;;;;;;20.73;66.90;101915.13;4990916;28;20535;-66
2023/05/23 09:12:48;;;;;;;9.35;2.50;;;;;;;21.57;64.08;101922.25;4990828;28;20085;-66
2023/05/23 09:15:15;;;;;;;7.82;1.92;;;;;;;21.28;59.28;101918.78;4989023;28;20132;-68
2023/05/23 09:17:43;;;;;;;6.35;1.77;;;;;;;21.61;62.05;101934.41;4989856;28;20050;-66
2023/05/23 09:20:13;;;;;;;12.85;2.78;;;;;;;20.75;65.52;101929.19;4989767;28;20081;-67
2023/05/23 09:22:44;;;;;;;14.50;2.90;;;;;;;20.47;66.24;101921.06;4992523;28;20141;-66
2023/05/23 09:25:11;;;;;;;10.27;2.85;;;;;;;19.97;67.23;101922.25;4989656;28;20159;-66
2023/05/23 09:27:39;;;;;;;10.13;2.25;;;;;;;19.40;70.13;101922.81;4989860;28;20061;-66
2023/05/23 09:30:11;;;;;;;7.68;1.90;;;;;;;19.69;72.56;101923.00;4989659;28;20056;-67
2023/05/23 09:32:39;;;;;;;11.07;2.37;;;;;;;20.06;72.49;101918.22;4976629;28;20133;-66
2023/05/23 09:35:11;;;;;;;9.52;2.80;;;;;;;19.68;76.09;101915.97;4989369;28;20338;-67
2023/05/23 09:37:47;;;;;;;10.88;2.42;;;;;;;19.05;79.36;101907.06;4973472;28;20145;-67
2023/05/23 09:40:15;;;;;;;11.68;2.83;;;;;;;19.16;84.11;101925.06;4988803;28;20097;-67
2023/05/23 09:42:44;;;;;;;16.13;3.15;;;;;;;19.08;91.15;101877.69;4972645;28;20050;-67
2023/05/23 09:45:12;;;;;;;12.43;2.97;;;;;;;18.88;88.04;101912.44;4989497;28;20077;-67
2023/05/23 09:47:51;;;;;;;27.70;4.05;;;;;;;19.24;94.98;101908.69;4953679;28;20555;-66
2023/05/23 09:50:19;;;;;;;11.60;3.53;;;;;;;18.70;100.00;101916.91;4964661;28;20396;-67
2023/05/23 09:52:48;;;;;;;13.98;3.30;;;;;;;18.81;100.00;101919.00;4989226;28;20129;-67
2023/05/23 09:55:14;;;;;;;10.73;2.95;;;;;;;18.84;100.00;101909.09;4989631;28;20056;-67
2023/05/23 09:57:42;;;;;;;10.48;2.88;;;;;;;18.66;100.00;101902.06;4990327;28;20062;-67
2023/05/23 10:00:12;;;;;;;13.75;2.95;;;;;;;18.46;100.00;101905.78;4990119;28;20089;-66
2023/05/23 10:02:58;;;;;;;13.88;3.58;;;;;;;17.49;100.00;101905.28;4989587;28;20134;-67
2023/05/23 10:05:32;;;;;;;15.25;2.97;;;;;;;17.51;100.00;101899.00;4967973;28;20286;-66
2023/05/23 10:08:01;;;;;;;12.07;2.90;;;;;;;17.86;100.00;101907.03;4986824;28;20090;-66
2023/05/23 10:10:32;;;;;;;12.88;2.95;;;;;;;18.07;100.00;101901.59;4989284;28;20823;-66
2023/05/23 10:13:04;;;;;;;16.50;3.80;;;;;;;18.45;100.00;101893.44;4989945;28;20085;-66
2023/05/23 10:15:37;;;;;;;21.20;3.60;;;;;;;18.59;100.00;101897.09;4988872;28;20488;-66
2023/05/23 10:18:38;;;;;;;16.20;4.25;;;;;;;18.29;100.00;101893.38;4990012;28;20054;-66
2023/05/23 10:21:14;;;;;;;15.45;3.42;;;;;;;18.13;100.00;101888.91;4982017;28;20052;-66
2023/05/23 10:23:45;;;;;;;12.95;3.33;;;;;;;18.54;100.00;101890.34;4973076;28;20054;-66
2023/05/23 10:26:15;;;;;;;11.60;2.67;;;;;;;18.40;99.89;101889.25;4991698;28;20054;-66
2023/05/23 10:28:46;;;;;;;10.85;3.08;;;;;;;18.50;94.68;101887.00;4975645;28;20480;-66
2023/05/23 10:31:13;;;;;;;14.07;3.83;;;;;;;18.30;100.00;101885.38;4992801;28;20141;-66
2023/05/23 10:33:46;;;;;;;13.00;2.92;;;;;;;18.38;100.00;101888.47;4993890;28;20085;-66
2023/05/23 10:36:33;;;;;;;15.38;3.25;;;;;;;18.81;100.00;101876.53;4992404;28;20054;-66
2023/05/23 10:39:39;;;;;;;14.23;3.35;;;;;;;18.82;100.00;101876.47;4994314;28;20053;-66
2023/05/23 10:42:20;;;;;;;11.23;3.10;;;;;;;19.54;100.00;101876.91;4988040;28;20705;-66
2023/05/23 10:44:48;;;;;;;10.77;2.80;;;;;;;19.90;100.00;101858.00;4975592;28;20491;-65
2023/05/23 10:47:27;;;;;;;12.88;3.20;;;;;;;19.44;100.00;101865.09;4993304;28;20097;-66
2023/05/23 10:49:54;;;;;;;12.70;3.55;;;;;;;19.22;100.00;101865.47;4992299;28;20054;-66
2023/05/23 10:52:27;;;;;;;10.70;2.53;;;;;;;19.06;100.00;101862.81;4992247;28;20089;-66
2023/05/23 10:54:57;;;;;;;14.38;3.78;;;;;;;19.18;100.00;101853.31;4990452;28;20217;-66
2023/05/23 10:57:28;;;;;;;12.95;3.75;;;;;;;19.13;98.41;101858.88;4975388;28;20492;-66
2023/05/23 10:59:55;;;;;;;12.20;3.17;;;;;;;19.16;99.21;101858.69;4992509;28;20058;-66
2023/05/23 11:02:27;;;;;;;9.68;2.65;;;;;;;19.75;97.79;101848.25;4975984;28;20065;-66
2023/05/23 11:05:22;;;;;;;13.30;3.78;;;;;;;18.91;100.00;101853.88;4979767;28;20080;-67
2023/05/23 11:08:13;;;;;;;16.98;4.03;;;;;;;19.11;100.00;101858.09;4980599;28;20088;-66
2023/05/23 11:10:55;;;;;;;10.63;2.40;;;;;;;19.03;100.00;101855.00;4982983;28;20069;-66
2023/05/23 11:13:22;;;;;;;17.30;3.78;;;;;;;19.41;100.00;101836.91;4976027;28;20133;-66
2023/05/23 11:15:49;;;;;;;16.30;3.30;;;;;;;18.68;100.00;101840.06;4992076;28;20046;-66
2023/05/23 11:18:21;;;;;;;14.05;3.08;;;;;;;18.88;100.00;101828.38;4992970;28;20054;-67
2023/05/23 11:20:51;;;;;;;12.75;2.90;;;;;;;19.44;100.00;101820.81;4998298;28;20049;-66
2023/05/23 11:23:21;;;;;;;14.52;3.80;;;;;;;18.85;100.00;101831.19;4986796;28;20052;-66